createdAt,value
2018-06-09T00:00:44.693Z,0.00
2018-06-09T00:01:44.751Z,0.00
2018-06-09T00:02:44.844Z,0.00
2018-06-09T00:03:44.662Z,0.00
2018-06-09T00:04:44.656Z,0.00
2018-06-09T00:05:44.652Z,0.00
2018-06-09T00:06:44.647Z,0.00
2018-06-09T00:07:44.643Z,0.00
2018-06-09T00:08:44.671Z,0.00
2018-06-09T00:09:44.639Z,0.00
2018-06-09T00:10:44.654Z,0.00
2018-06-09T00:11:44.652Z,0.00
2018-06-09T00:12:44.614Z,0.00
2018-06-09T00:13:44.665Z,0.00
2018-06-09T00:14:44.657Z,0.00
2018-06-09T00:15:44.591Z,0.00
2018-06-09T00:16:44.633Z,0.00
2018-06-09T00:17:44.586Z,0.00
2018-06-09T00:18:45.649Z,0.00
2018-06-09T00:19:44.588Z,0.00
2018-06-09T00:20:44.568Z,0.00
2018-06-09T00:21:44.554Z,0.00
2018-06-09T00:22:44.546Z,0.00
2018-06-09T00:23:44.548Z,0.00
2018-06-09T00:24:44.594Z,0.00
2018-06-09T00:25:44.552Z,0.00
2018-06-09T00:26:44.566Z,0.00
2018-06-09T00:27:44.518Z,0.00
2018-06-09T00:28:44.516Z,0.00
2018-06-09T00:29:44.514Z,0.00
2018-06-09T00:30:44.512Z,0.00
2018-06-09T00:31:44.525Z,0.00
2018-06-09T00:32:44.503Z,0.00
2018-06-09T00:33:44.500Z,0.00
2018-06-09T00:34:44.854Z,0.00
2018-06-09T00:35:44.475Z,0.00
2018-06-09T00:36:44.514Z,0.00
2018-06-09T00:37:44.471Z,0.00
2018-06-09T00:38:44.464Z,0.00
2018-06-09T00:39:45.104Z,0.00
2018-06-09T00:40:44.484Z,0.00
2018-06-09T00:41:44.489Z,0.00
2018-06-09T00:42:44.446Z,0.00
2018-06-09T00:43:44.428Z,0.00
2018-06-09T00:44:44.534Z,0.00
2018-06-09T00:45:44.419Z,0.00
2018-06-09T00:46:44.414Z,0.00
2018-06-09T00:47:44.429Z,0.00
2018-06-09T00:48:44.411Z,0.00
2018-06-09T00:49:44.755Z,0.00
2018-06-09T00:50:44.380Z,0.00
2018-06-09T00:51:44.571Z,0.00
2018-06-09T00:52:44.376Z,0.00
2018-06-09T00:53:44.371Z,0.00
2018-06-09T00:54:44.369Z,0.00
2018-06-09T00:55:44.492Z,0.00
2018-06-09T00:56:44.356Z,0.00
2018-06-09T00:57:44.351Z,0.00
2018-06-09T00:58:44.339Z,0.00
2018-06-09T00:59:44.336Z,0.00
2018-06-09T01:00:44.327Z,0.00
2018-06-09T01:01:44.359Z,0.00
2018-06-09T01:02:44.317Z,0.00
2018-06-09T01:03:44.310Z,0.00
2018-06-09T01:04:44.306Z,0.00
2018-06-09T01:05:44.302Z,0.00
2018-06-09T01:06:44.366Z,0.00
2018-06-09T01:07:44.297Z,0.00
2018-06-09T01:08:44.279Z,0.00
2018-06-09T01:09:45.108Z,0.00
2018-06-09T01:10:44.266Z,0.00
2018-06-09T01:11:44.264Z,0.00
2018-06-09T01:12:44.297Z,0.00
2018-06-09T01:13:44.259Z,0.00
2018-06-09T01:14:44.256Z,0.00
2018-06-09T01:15:44.237Z,0.00
2018-06-09T01:16:44.236Z,0.00
2018-06-09T01:17:44.247Z,0.00
2018-06-09T01:18:44.250Z,0.00
2018-06-09T01:19:44.223Z,0.00
2018-06-09T01:20:44.198Z,0.00
2018-06-09T01:21:44.201Z,0.00
2018-06-09T01:22:44.255Z,0.00
2018-06-09T01:23:44.193Z,0.00
2018-06-09T01:24:44.170Z,0.00
2018-06-09T01:25:44.175Z,0.00
2018-06-09T01:26:44.168Z,0.00
2018-06-09T01:27:44.164Z,0.00
2018-06-09T01:28:44.194Z,0.00
2018-06-09T01:29:44.194Z,0.00
2018-06-09T01:30:44.142Z,0.00
2018-06-09T01:31:44.128Z,0.00
2018-06-09T01:32:44.157Z,0.00
2018-06-09T01:33:44.151Z,0.00
2018-06-09T01:34:44.107Z,0.00
2018-06-09T01:35:44.115Z,0.00
2018-06-09T01:36:44.116Z,0.00
2018-06-09T01:37:44.094Z,0.00
2018-06-09T01:38:44.091Z,0.00
2018-06-09T01:39:44.086Z,0.00
2018-06-09T01:40:44.066Z,0.00
2018-06-09T01:41:44.075Z,0.00
2018-06-09T01:42:44.067Z,0.00
2018-06-09T01:43:44.052Z,0.00
2018-06-09T01:44:44.056Z,0.00
2018-06-09T01:45:44.043Z,0.00
2018-06-09T01:46:44.073Z,0.00
2018-06-09T01:47:44.037Z,0.00
2018-06-09T01:48:44.024Z,0.00
2018-06-09T01:49:44.076Z,0.00
2018-06-09T01:50:44.005Z,0.00
2018-06-09T01:51:44.060Z,0.00
2018-06-09T01:52:44.002Z,0.00
2018-06-09T01:53:43.996Z,0.00
2018-06-09T01:54:43.989Z,0.00
2018-06-09T01:55:44.033Z,0.00
2018-06-09T01:56:43.971Z,0.00
2018-06-09T01:57:43.960Z,0.00
2018-06-09T01:58:43.958Z,0.00
2018-06-09T01:59:43.947Z,0.00
2018-06-09T02:00:43.947Z,0.00
2018-06-09T02:01:43.947Z,0.00
2018-06-09T02:02:43.942Z,0.00
2018-06-09T02:03:43.927Z,0.00
2018-06-09T02:04:43.917Z,0.00
2018-06-09T02:05:43.908Z,0.00
2018-06-09T02:06:44.048Z,0.00
2018-06-09T02:07:43.907Z,0.00
2018-06-09T02:08:43.888Z,0.00
2018-06-09T02:09:43.888Z,0.00
2018-06-09T02:10:43.890Z,0.00
2018-06-09T02:11:43.883Z,0.00
2018-06-09T02:12:43.893Z,0.00
2018-06-09T02:13:43.882Z,0.00
2018-06-09T02:14:43.857Z,0.00
2018-06-09T02:15:43.908Z,0.00
2018-06-09T02:16:43.859Z,0.00
2018-06-09T02:17:44.059Z,0.00
2018-06-09T02:18:43.936Z,0.00
2018-06-09T02:19:43.826Z,0.00
2018-06-09T02:20:43.903Z,0.00
2018-06-09T02:21:43.805Z,0.00
2018-06-09T02:22:44.055Z,0.00
2018-06-09T02:23:43.848Z,0.00
2018-06-09T02:24:43.796Z,0.00
2018-06-09T02:25:43.783Z,0.00
2018-06-09T02:26:43.775Z,0.00
2018-06-09T02:27:43.767Z,0.00
2018-06-09T02:28:43.794Z,0.00
2018-06-09T02:29:43.752Z,0.00
2018-06-09T02:30:43.753Z,0.00
2018-06-09T02:31:43.740Z,0.00
2018-06-09T02:32:43.797Z,0.00
2018-06-09T02:33:43.731Z,0.00
2018-06-09T02:34:43.844Z,0.00
2018-06-09T02:35:43.738Z,0.00
2018-06-09T02:36:43.710Z,0.00
2018-06-09T02:37:43.701Z,0.00
2018-06-09T02:38:43.730Z,0.00
2018-06-09T02:39:43.689Z,0.00
2018-06-09T02:40:43.684Z,4.00
2018-06-09T02:41:43.685Z,4.00
2018-06-09T02:42:43.669Z,0.00
2018-06-09T02:43:43.660Z,4.00
2018-06-09T02:44:43.708Z,4.00
2018-06-09T02:45:43.916Z,4.00
2018-06-09T02:46:43.712Z,4.00
2018-06-09T02:47:43.806Z,4.00
2018-06-09T02:48:43.632Z,4.00
2018-06-09T02:49:43.676Z,4.00
2018-06-09T02:50:43.679Z,8.00
2018-06-09T02:51:43.618Z,8.00
2018-06-09T02:52:43.602Z,4.00
2018-06-09T02:53:43.599Z,8.00
2018-06-09T02:54:43.646Z,8.00
2018-06-09T02:55:43.590Z,8.00
2018-06-09T02:56:43.583Z,12.00
2018-06-09T02:57:43.583Z,12.00
2018-06-09T02:58:43.595Z,12.00
2018-06-09T02:59:43.559Z,12.00
2018-06-09T03:00:43.583Z,16.00
2018-06-09T03:01:43.554Z,16.00
2018-06-09T03:02:43.547Z,16.00
2018-06-09T03:03:43.533Z,20.00
2018-06-09T03:04:43.587Z,20.00
2018-06-09T03:05:43.512Z,24.00
2018-06-09T03:06:43.512Z,24.00
2018-06-09T03:07:43.501Z,20.00
2018-06-09T03:08:43.500Z,24.00
2018-06-09T03:09:43.501Z,24.00
2018-06-09T03:10:43.515Z,28.00
2018-06-09T03:11:43.482Z,28.00
2018-06-09T03:12:43.481Z,28.00
2018-06-09T03:13:43.482Z,32.00
2018-06-09T03:14:43.568Z,32.00
2018-06-09T03:15:43.492Z,32.00
2018-06-09T03:16:43.438Z,32.00
2018-06-09T03:17:43.437Z,36.00
2018-06-09T03:18:43.446Z,36.00
2018-06-09T03:19:43.428Z,36.00
2018-06-09T03:20:43.446Z,44.00
2018-06-09T03:21:43.460Z,40.00
2018-06-09T03:22:43.411Z,44.00
2018-06-09T03:23:43.480Z,48.00
2018-06-09T03:24:43.399Z,52.00
2018-06-09T03:25:43.393Z,52.00
2018-06-09T03:26:43.384Z,56.00
2018-06-09T03:27:43.865Z,60.00
2018-06-09T03:28:43.368Z,64.00
2018-06-09T03:29:43.368Z,64.00
2018-06-09T03:30:43.365Z,68.00
2018-06-09T03:31:43.390Z,72.00
2018-06-09T03:32:43.386Z,76.00
2018-06-09T03:33:43.368Z,76.00
2018-06-09T03:34:43.329Z,80.00
2018-06-09T03:35:43.319Z,80.00
2018-06-09T03:36:43.313Z,80.00
2018-06-09T03:37:43.306Z,84.00
2018-06-09T03:38:43.331Z,88.00
2018-06-09T03:39:43.293Z,96.00
2018-06-09T03:40:43.326Z,96.00
2018-06-09T03:41:43.279Z,100.00
2018-06-09T03:42:43.278Z,108.00
2018-06-09T03:43:43.271Z,116.00
2018-06-09T03:44:43.261Z,128.00
2018-06-09T03:45:43.294Z,136.00
2018-06-09T03:46:43.281Z,152.00
2018-06-09T03:47:43.240Z,164.00
2018-06-09T03:48:43.232Z,176.00
2018-06-09T03:49:43.232Z,184.00
2018-06-09T03:50:43.356Z,204.00
2018-06-09T03:51:43.216Z,224.00
2018-06-09T03:52:43.199Z,236.00
2018-06-09T03:53:43.204Z,248.00
2018-06-09T03:54:43.205Z,260.00
2018-06-09T03:55:43.193Z,268.00
2018-06-09T03:56:43.244Z,284.00
2018-06-09T03:57:43.179Z,296.00
2018-06-09T03:58:43.167Z,308.00
2018-06-09T03:59:43.156Z,324.00
2018-06-09T04:00:43.167Z,336.00
2018-06-09T04:01:43.145Z,348.00
2018-06-09T04:02:43.151Z,364.00
2018-06-09T04:03:43.132Z,380.00
2018-06-09T04:04:43.125Z,408.00
2018-06-09T04:05:43.118Z,432.00
2018-06-09T04:06:43.127Z,444.00
2018-06-09T04:07:43.117Z,460.00
2018-06-09T04:08:43.106Z,476.00
2018-06-09T04:09:43.093Z,480.00
2018-06-09T04:10:43.117Z,492.00
2018-06-09T04:11:43.133Z,504.00
2018-06-09T04:12:43.078Z,508.00
2018-06-09T04:13:43.071Z,524.00
2018-06-09T04:14:43.092Z,540.00
2018-06-09T04:15:43.137Z,552.00
2018-06-09T04:16:43.041Z,552.00
2018-06-09T04:17:43.049Z,560.00
2018-06-09T04:18:43.043Z,560.00
2018-06-09T04:19:43.357Z,564.00
2018-06-09T04:20:43.048Z,568.00
2018-06-09T04:21:43.015Z,576.00
2018-06-09T04:22:43.011Z,588.00
2018-06-09T04:23:42.997Z,596.00
2018-06-09T04:24:42.999Z,588.00
2018-06-09T04:25:42.995Z,588.00
2018-06-09T04:26:42.983Z,588.00
2018-06-09T04:27:42.970Z,588.00
2018-06-09T04:28:42.969Z,588.00
2018-06-09T04:29:43.696Z,596.00
2018-06-09T04:30:42.960Z,612.00
2018-06-09T04:31:42.977Z,608.00
2018-06-09T04:32:42.941Z,608.00
2018-06-09T04:33:42.933Z,604.00
2018-06-09T04:34:42.936Z,600.00
2018-06-09T04:35:43.006Z,600.00
2018-06-09T04:36:42.910Z,612.00
2018-06-09T04:37:42.905Z,624.00
2018-06-09T04:38:42.901Z,648.00
2018-06-09T04:39:42.892Z,672.00
2018-06-09T04:40:42.885Z,688.00
2018-06-09T04:41:42.903Z,692.00
2018-06-09T04:42:42.864Z,688.00
2018-06-09T04:43:42.863Z,656.00
2018-06-09T04:44:42.861Z,644.00
2018-06-09T04:45:42.856Z,636.00
2018-06-09T04:46:42.882Z,648.00
2018-06-09T04:47:42.850Z,680.00
2018-06-09T04:48:42.824Z,712.00
2018-06-09T04:49:42.832Z,716.00
2018-06-09T04:50:42.851Z,708.00
2018-06-09T04:51:42.834Z,696.00
2018-06-09T04:52:42.798Z,680.00
2018-06-09T04:53:42.829Z,680.00
2018-06-09T04:54:42.787Z,680.00
2018-06-09T04:55:42.783Z,672.00
2018-06-09T04:56:42.780Z,676.00
2018-06-09T04:57:42.767Z,692.00
2018-06-09T04:58:42.829Z,708.00
2018-06-09T04:59:42.791Z,720.00
2018-06-09T05:00:42.749Z,728.00
2018-06-09T05:01:42.779Z,744.00
2018-06-09T05:02:42.733Z,748.00
2018-06-09T05:03:42.735Z,760.00
2018-06-09T05:04:42.727Z,764.00
2018-06-09T05:05:42.719Z,764.00
2018-06-09T05:06:42.715Z,772.00
2018-06-09T05:07:42.694Z,784.00
2018-06-09T05:08:42.688Z,788.00
2018-06-09T05:09:42.693Z,796.00
2018-06-09T05:10:42.695Z,792.00
2018-06-09T05:11:42.678Z,792.00
2018-06-09T05:12:42.670Z,800.00
2018-06-09T05:13:42.657Z,804.00
2018-06-09T05:14:42.889Z,816.00
2018-06-09T05:15:42.643Z,840.00
2018-06-09T05:16:42.653Z,880.00
2018-06-09T05:17:42.639Z,944.00
2018-06-09T05:18:42.625Z,1000.00
2018-06-09T05:19:42.659Z,1032.00
2018-06-09T05:20:42.659Z,1044.00
2018-06-09T05:21:42.609Z,1048.00
2018-06-09T05:22:42.603Z,1036.00
2018-06-09T05:23:42.595Z,1052.00
2018-06-09T05:24:42.666Z,1068.00
2018-06-09T05:25:42.626Z,1088.00
2018-06-09T05:26:42.582Z,1104.00
2018-06-09T05:27:42.574Z,1124.00
2018-06-09T05:28:42.573Z,1144.00
2018-06-09T05:29:42.581Z,1136.00
2018-06-09T05:30:42.697Z,1124.00
2018-06-09T05:31:42.540Z,1136.00
2018-06-09T05:32:42.532Z,1152.00
2018-06-09T05:33:42.536Z,1176.00
2018-06-09T05:34:42.543Z,1184.00
2018-06-09T05:35:42.555Z,1208.00
2018-06-09T05:36:42.572Z,1232.00
2018-06-09T05:37:42.509Z,1236.00
2018-06-09T05:38:42.533Z,1232.00
2018-06-09T05:39:42.491Z,1216.00
2018-06-09T05:40:42.488Z,1208.00
2018-06-09T05:41:42.505Z,1196.00
2018-06-09T05:42:42.502Z,1208.00
2018-06-09T05:43:42.500Z,1236.00
2018-06-09T05:44:42.504Z,1268.00
2018-06-09T05:45:42.458Z,1316.00
2018-06-09T05:46:42.484Z,1364.00
2018-06-09T05:47:42.533Z,1424.00
2018-06-09T05:48:42.439Z,1464.00
2018-06-09T05:49:42.434Z,1500.00
2018-06-09T05:50:42.454Z,1564.00
2018-06-09T05:51:42.777Z,1676.00
2018-06-09T05:52:42.415Z,1804.00
2018-06-09T05:53:42.399Z,1980.00
2018-06-09T05:54:42.399Z,2176.00
2018-06-09T05:55:42.446Z,2296.00
2018-06-09T05:56:42.388Z,2356.00
2018-06-09T05:57:42.423Z,2284.00
2018-06-09T05:58:42.413Z,2220.00
2018-06-09T05:59:42.375Z,2204.00
2018-06-09T06:00:42.391Z,2192.00
2018-06-09T06:01:42.365Z,2204.00
2018-06-09T06:02:42.360Z,2196.00
2018-06-09T06:03:42.388Z,2152.00
2018-06-09T06:04:42.336Z,2132.00
2018-06-09T06:05:42.329Z,2124.00
2018-06-09T06:06:42.327Z,2088.00
2018-06-09T06:07:42.319Z,2044.00
2018-06-09T06:08:42.688Z,2024.00
2018-06-09T06:09:42.307Z,2044.00
2018-06-09T06:10:42.312Z,2080.00
2018-06-09T06:11:42.306Z,2104.00
2018-06-09T06:12:42.296Z,2140.00
2018-06-09T06:13:42.291Z,2156.00
2018-06-09T06:14:42.361Z,2140.00
2018-06-09T06:15:42.284Z,2144.00
2018-06-09T06:16:42.280Z,2152.00
2018-06-09T06:17:42.264Z,2164.00
2018-06-09T06:18:42.290Z,2164.00
2018-06-09T06:19:42.250Z,2172.00
2018-06-09T06:20:42.446Z,2192.00
2018-06-09T06:21:42.306Z,2228.00
2018-06-09T06:22:42.246Z,2212.00
2018-06-09T06:23:42.234Z,2192.00
2018-06-09T06:24:42.228Z,2180.00
2018-06-09T06:25:42.221Z,2116.00
2018-06-09T06:26:42.232Z,2072.00
2018-06-09T06:27:42.212Z,2008.00
2018-06-09T06:28:42.204Z,1908.00
2018-06-09T06:29:42.201Z,1868.00
2018-06-09T06:30:42.214Z,1792.00
2018-06-09T06:31:42.267Z,1736.00
2018-06-09T06:32:42.186Z,1692.00
2018-06-09T06:33:42.296Z,1700.00
2018-06-09T06:34:42.233Z,1736.00
2018-06-09T06:35:42.202Z,1808.00
2018-06-09T06:36:42.172Z,1896.00
2018-06-09T06:37:42.157Z,2032.00
2018-06-09T06:38:42.156Z,2204.00
2018-06-09T06:39:42.159Z,2324.00
2018-06-09T06:40:42.161Z,2460.00
2018-06-09T06:41:42.206Z,2640.00
2018-06-09T06:42:42.134Z,2748.00
2018-06-09T06:43:42.125Z,2800.00
2018-06-09T06:44:42.511Z,2924.00
2018-06-09T06:45:42.132Z,3004.00
2018-06-09T06:46:42.113Z,3052.00
2018-06-09T06:47:42.106Z,3080.00
2018-06-09T06:48:42.124Z,3052.00
2018-06-09T06:49:42.192Z,3136.00
2018-06-09T06:50:42.125Z,3208.00
2018-06-09T06:51:42.082Z,3252.00
2018-06-09T06:52:42.082Z,3268.00
2018-06-09T06:53:42.072Z,3324.00
2018-06-09T06:54:42.071Z,3440.00
2018-06-09T06:55:42.228Z,3540.00
2018-06-09T06:56:42.111Z,3600.00
2018-06-09T06:57:42.070Z,3756.00
2018-06-09T06:58:42.050Z,3832.00
2018-06-09T06:59:42.098Z,3816.00
2018-06-09T07:00:42.041Z,3732.00
2018-06-09T07:01:42.049Z,3680.00
2018-06-09T07:02:42.049Z,3728.00
2018-06-09T07:03:42.076Z,3708.00
2018-06-09T07:04:42.024Z,3676.00
2018-06-09T07:05:42.010Z,3844.00
2018-06-09T07:06:42.059Z,3968.00
2018-06-09T07:07:42.008Z,4076.00
2018-06-09T07:08:42.038Z,4064.00
2018-06-09T07:09:42.021Z,4116.00
2018-06-09T07:10:41.989Z,4116.00
2018-06-09T07:11:42.275Z,3952.00
2018-06-09T07:12:41.976Z,3792.00
2018-06-09T07:13:41.975Z,3740.00
2018-06-09T07:14:41.976Z,3672.00
2018-06-09T07:15:42.005Z,3632.00
2018-06-09T07:16:41.961Z,3616.00
2018-06-09T07:17:41.965Z,3524.00
2018-06-09T07:18:42.077Z,3552.00
2018-06-09T07:19:42.050Z,3584.00
2018-06-09T07:20:41.960Z,3632.00
2018-06-09T07:21:42.286Z,3660.00
2018-06-09T07:22:42.717Z,3588.00
2018-06-09T07:23:42.244Z,3492.00
2018-06-09T07:24:41.919Z,3468.00
2018-06-09T07:25:41.919Z,3564.00
2018-06-09T07:26:41.914Z,3792.00
2018-06-09T07:27:41.933Z,4064.00
2018-06-09T07:28:41.919Z,4156.00
2018-06-09T07:29:41.905Z,4180.00
2018-06-09T07:30:41.887Z,4212.00
2018-06-09T07:31:41.921Z,4284.00
2018-06-09T07:32:41.885Z,4164.00
2018-06-09T07:33:41.871Z,4148.00
2018-06-09T07:34:41.873Z,4132.00
2018-06-09T07:35:41.866Z,3968.00
2018-06-09T07:36:41.870Z,3852.00
2018-06-09T07:37:41.857Z,3680.00
2018-06-09T07:38:41.858Z,3616.00
2018-06-09T07:39:41.858Z,3856.00
2018-06-09T07:40:41.845Z,4304.00
2018-06-09T07:41:41.879Z,4724.00
2018-06-09T07:42:41.842Z,5012.00
2018-06-09T07:48:16.398Z,5416.00
2018-06-09T07:49:16.560Z,5380.00
2018-06-09T07:50:16.128Z,5192.00
2018-06-09T07:51:15.946Z,4824.00
2018-06-09T07:52:15.971Z,4400.00
2018-06-09T07:53:15.935Z,4184.00
2018-06-09T07:54:15.935Z,4048.00
2018-06-09T07:55:16.024Z,3988.00
2018-06-09T07:56:15.939Z,3948.00
2018-06-09T07:57:15.932Z,4104.00
2018-06-09T07:58:15.916Z,4360.00
2018-06-09T07:59:15.904Z,4696.00
2018-06-09T08:00:15.936Z,5084.00
2018-06-09T08:01:15.921Z,5408.00
2018-06-09T08:02:15.915Z,5508.00
2018-06-09T08:03:15.923Z,5764.00
2018-06-09T08:04:15.902Z,5632.00
2018-06-09T08:05:15.923Z,5692.00
2018-06-09T08:06:15.926Z,5500.00
2018-06-09T08:07:15.920Z,5312.00
2018-06-09T08:08:15.930Z,5168.00
2018-06-09T08:09:15.897Z,5176.00
2018-06-09T08:10:15.878Z,5240.00
2018-06-09T08:11:15.866Z,5228.00
2018-06-09T08:12:15.912Z,5280.00
2018-06-09T08:13:15.930Z,5240.00
2018-06-09T08:14:15.938Z,5216.00
2018-06-09T08:15:15.889Z,5292.00
2018-06-09T08:16:15.922Z,5500.00
2018-06-09T08:17:15.850Z,5212.00
2018-06-09T08:18:15.915Z,5412.00
2018-06-09T08:19:15.842Z,5624.00
2018-06-09T08:20:15.852Z,5720.00
2018-06-09T08:21:15.839Z,5888.00
2018-06-09T08:22:15.851Z,6260.00
2018-06-09T08:23:15.829Z,6944.00
2018-06-09T08:24:15.838Z,7368.00
2018-06-09T08:25:15.872Z,7556.00
2018-06-09T08:26:15.821Z,8712.00
2018-06-09T08:27:15.974Z,9892.00
2018-06-09T08:28:16.504Z,7684.00
2018-06-09T08:29:15.848Z,8420.00
2018-06-09T08:30:15.798Z,24448.00
2018-06-09T08:31:15.790Z,33920.00
2018-06-09T08:32:15.945Z,36000.00
2018-06-09T08:33:15.941Z,19488.00
2018-06-09T08:34:15.840Z,16000.00
2018-06-09T08:35:15.790Z,18752.00
2018-06-09T08:36:15.891Z,28672.00
2018-06-09T08:37:15.779Z,20064.00
2018-06-09T08:38:15.788Z,17760.00
2018-06-09T08:39:16.917Z,15616.00
2018-06-09T08:40:15.787Z,21056.00
2018-06-09T08:41:15.787Z,27200.00
2018-06-09T08:42:16.133Z,26976.00
2018-06-09T08:43:15.773Z,29056.00
2018-06-09T08:44:16.522Z,33280.00
2018-06-09T08:45:15.779Z,36928.00
2018-06-09T08:46:17.527Z,32672.00
2018-06-09T08:47:15.766Z,32128.00
2018-06-09T08:48:15.828Z,32896.00
2018-06-09T08:49:15.781Z,30944.00
2018-06-09T08:50:15.808Z,35104.00
2018-06-09T08:51:15.796Z,36960.00
2018-06-09T08:52:15.773Z,30208.00
2018-06-09T08:53:15.797Z,25504.00
2018-06-09T08:54:16.154Z,28096.00
2018-06-09T08:55:15.798Z,38496.00
2018-06-09T08:56:15.770Z,47168.00
2018-06-09T08:57:15.835Z,50624.00
2018-06-09T08:58:15.985Z,51456.00
2018-06-09T08:59:16.283Z,56704.00
2018-06-09T09:00:16.115Z,56128.00
2018-06-09T09:01:15.774Z,59360.00
2018-06-09T09:02:15.778Z,57888.00
2018-06-09T09:03:15.935Z,53472.00
2018-06-09T09:04:15.766Z,55936.00
2018-06-09T09:05:16.321Z,53152.00
2018-06-09T09:06:15.769Z,60768.00
2018-06-09T09:07:15.882Z,66656.00
2018-06-09T09:08:15.873Z,71808.00
2018-06-09T09:09:16.161Z,67584.00
2018-06-09T09:10:15.809Z,64032.00
2018-06-09T09:11:15.787Z,57056.00
2018-06-09T09:12:15.841Z,57696.00
2018-06-09T09:13:15.803Z,55072.00
2018-06-09T09:14:15.842Z,59616.00
2018-06-09T09:15:16.021Z,58624.00
2018-06-09T09:16:15.798Z,54944.00
2018-06-09T09:17:15.804Z,59392.00
2018-06-09T09:18:15.815Z,60256.00
2018-06-09T09:19:15.844Z,57920.00
2018-06-09T09:20:16.201Z,58272.00
2018-06-09T09:21:15.823Z,59552.00
2018-06-09T09:22:15.817Z,55232.00
2018-06-09T09:23:15.975Z,48832.00
2018-06-09T09:24:15.861Z,37632.00
2018-06-09T09:25:15.881Z,42176.00
2018-06-09T09:26:15.866Z,55264.00
2018-06-09T09:27:15.930Z,56736.00
2018-06-09T09:28:15.993Z,60096.00
2018-06-09T09:29:15.861Z,62112.00
2018-06-09T09:30:15.901Z,59456.00
2018-06-09T09:31:15.876Z,55360.00
2018-06-09T09:32:15.944Z,63136.00
2018-06-09T09:33:15.884Z,59936.00
2018-06-09T09:34:15.879Z,59104.00
2018-06-09T09:35:15.908Z,67456.00
2018-06-09T09:36:15.901Z,65856.00
2018-06-09T09:37:15.895Z,62752.00
2018-06-09T09:38:15.916Z,62240.00
2018-06-09T09:39:16.538Z,52512.00
2018-06-09T09:40:15.948Z,64736.00
2018-06-09T09:41:16.191Z,55360.00
2018-06-09T09:42:15.930Z,40896.00
2018-06-09T09:43:15.942Z,36160.00
2018-06-09T09:44:15.939Z,47584.00
2018-06-09T09:45:15.969Z,21664.00
2018-06-09T09:46:15.977Z,20640.00
2018-06-09T09:47:15.962Z,29248.00
2018-06-09T09:48:15.996Z,22816.00
2018-06-09T09:49:15.964Z,33344.00
2018-06-09T09:50:16.007Z,39296.00
2018-06-09T09:51:16.001Z,25536.00
2018-06-09T09:52:16.019Z,14016.00
2018-06-09T09:53:15.990Z,11508.00
2018-06-09T09:54:15.995Z,10248.00
2018-06-09T09:55:16.034Z,12492.00
2018-06-09T09:56:16.003Z,11360.00
2018-06-09T09:57:16.054Z,14400.00
2018-06-09T09:58:16.018Z,22720.00
2018-06-09T09:59:16.027Z,21024.00
2018-06-09T10:00:16.058Z,17632.00
2018-06-09T10:01:16.025Z,18688.00
2018-06-09T10:02:16.031Z,9316.00
2018-06-09T10:03:16.503Z,8800.00
2018-06-09T10:04:16.038Z,9392.00
2018-06-09T10:05:16.038Z,9132.00
2018-06-09T10:06:16.051Z,12912.00
2018-06-09T10:07:16.193Z,13472.00
2018-06-09T10:08:16.103Z,9312.00
2018-06-09T10:09:16.111Z,10156.00
2018-06-09T10:10:16.049Z,13696.00
2018-06-09T10:11:16.076Z,30688.00
2018-06-09T10:12:16.062Z,37600.00
2018-06-09T10:13:16.107Z,37536.00
2018-06-09T10:14:16.162Z,13308.00
2018-06-09T10:15:16.403Z,12132.00
2018-06-09T10:16:16.885Z,11720.00
2018-06-09T10:17:16.552Z,16512.00
2018-06-09T10:18:16.163Z,22816.00
2018-06-09T10:19:16.071Z,38784.00
2018-06-09T10:20:16.295Z,53952.00
2018-06-09T10:21:16.282Z,42112.00
2018-06-09T10:22:16.098Z,46496.00
2018-06-09T10:23:16.090Z,38464.00
2018-06-09T10:24:16.172Z,57856.00
2018-06-09T10:25:26.000Z,26304.00
2018-06-09T10:26:16.153Z,55488.00
2018-06-09T10:27:16.083Z,37600.00
2018-06-09T10:28:16.099Z,27584.00
2018-06-09T10:29:16.094Z,11956.00
2018-06-09T10:30:16.099Z,15904.00
2018-06-09T10:31:16.101Z,15488.00
2018-06-09T10:32:16.138Z,8644.00
2018-06-09T10:33:16.132Z,6368.00
2018-06-09T10:34:16.123Z,8528.00
2018-06-09T10:35:16.131Z,6772.00
2018-06-09T10:36:16.136Z,5200.00
2018-06-09T10:37:16.145Z,4468.00
2018-06-09T10:38:16.131Z,3980.00
2018-06-09T10:39:16.117Z,3640.00
2018-06-09T10:40:16.130Z,3580.00
2018-06-09T10:41:16.121Z,5264.00
2018-06-09T10:42:16.167Z,4344.00
2018-06-09T10:43:16.128Z,4180.00
2018-06-09T10:44:16.132Z,4472.00
2018-06-09T10:45:16.172Z,4876.00
2018-06-09T10:46:16.127Z,5020.00
2018-06-09T10:47:16.334Z,20064.00
2018-06-09T10:48:16.378Z,18528.00
2018-06-09T10:49:16.161Z,14848.00
2018-06-09T10:50:16.156Z,9540.00
2018-06-09T10:51:16.137Z,11416.00
2018-06-09T10:52:16.138Z,12516.00
2018-06-09T10:53:16.175Z,22528.00
2018-06-09T10:54:16.142Z,45824.00
2018-06-09T10:55:16.143Z,66144.00
2018-06-09T10:56:16.147Z,76960.00
2018-06-09T10:57:16.148Z,43296.00
2018-06-09T10:58:16.202Z,36832.00
2018-06-09T10:59:16.156Z,14912.00
2018-06-09T11:00:16.152Z,18784.00
2018-06-09T11:01:16.151Z,22944.00
2018-06-09T11:02:16.145Z,48384.00
2018-06-09T11:03:16.162Z,82560.00
2018-06-09T11:04:16.186Z,19104.00
2018-06-09T11:05:16.201Z,27520.00
2018-06-09T11:06:16.163Z,84000.00
2018-06-09T11:07:16.160Z,69600.00
2018-06-09T11:08:16.162Z,26912.00
2018-06-09T11:09:16.222Z,17248.00
2018-06-09T11:10:16.174Z,9388.00
2018-06-09T11:11:16.460Z,33568.00
2018-06-09T11:12:16.188Z,94240.00
2018-06-09T11:13:16.188Z,85664.00
2018-06-09T11:14:16.657Z,83200.00
2018-06-09T11:15:16.383Z,91424.00
2018-06-09T11:16:16.197Z,90912.00
2018-06-09T11:17:16.282Z,83776.00
2018-06-09T11:18:16.295Z,90336.00
2018-06-09T11:19:16.195Z,98496.00
2018-06-09T11:20:16.345Z,92928.00
2018-06-09T11:21:16.213Z,92544.00
2018-06-09T11:22:16.217Z,96000.00
2018-06-09T11:23:16.231Z,90336.00
2018-06-09T11:24:16.229Z,79744.00
2018-06-09T11:25:16.233Z,78368.00
2018-06-09T11:26:16.392Z,78080.00
2018-06-09T11:27:16.246Z,76928.00
2018-06-09T11:28:16.261Z,79936.00
2018-06-09T11:29:16.271Z,83296.00
2018-06-09T11:30:16.269Z,79360.00
2018-06-09T11:31:16.277Z,72256.00
2018-06-09T11:32:16.710Z,70880.00
2018-06-09T11:33:16.291Z,83456.00
2018-06-09T11:34:16.293Z,62368.00
2018-06-09T11:35:16.309Z,64288.00
2018-06-09T11:36:16.321Z,62048.00
2018-06-09T11:37:16.349Z,62112.00
2018-06-09T11:38:16.338Z,52896.00
2018-06-09T11:39:16.361Z,48736.00
2018-06-09T11:40:16.345Z,62080.00
2018-06-09T11:41:16.359Z,76800.00
2018-06-09T11:42:16.365Z,77984.00
2018-06-09T11:43:16.368Z,81664.00
2018-06-09T11:44:16.730Z,81472.00
2018-06-09T11:45:16.388Z,26848.00
2018-06-09T11:46:16.399Z,58624.00
2018-06-09T11:47:16.411Z,29536.00
2018-06-09T11:48:16.407Z,5936.00
2018-06-09T11:49:16.427Z,4840.00
2018-06-09T11:50:16.436Z,4724.00
2018-06-09T11:51:16.433Z,4468.00
2018-06-09T11:52:16.453Z,4372.00
2018-06-09T11:53:16.595Z,6680.00
2018-06-09T11:54:16.476Z,13188.00
2018-06-09T11:55:16.470Z,14432.00
2018-06-09T11:56:16.498Z,6084.00
2018-06-09T11:57:16.483Z,6152.00
2018-06-09T11:58:16.498Z,5520.00
2018-06-09T11:59:16.537Z,4872.00
2018-06-09T12:00:16.505Z,4448.00
2018-06-09T12:01:16.514Z,4400.00
2018-06-09T12:02:16.514Z,4332.00
2018-06-09T12:03:16.521Z,4192.00
2018-06-09T12:04:16.575Z,4108.00
2018-06-09T12:05:16.565Z,4000.00
2018-06-09T12:06:16.545Z,3972.00
2018-06-09T12:07:16.548Z,3888.00
2018-06-09T12:08:16.549Z,3832.00
2018-06-09T12:09:16.582Z,3744.00
2018-06-09T12:10:16.552Z,3720.00
2018-06-09T12:11:16.582Z,3720.00
2018-06-09T12:12:16.583Z,3736.00
2018-06-09T12:13:16.570Z,3716.00
2018-06-09T12:14:16.581Z,3664.00
2018-06-09T12:15:16.565Z,3684.00
2018-06-09T12:16:16.600Z,3612.00
2018-06-09T12:17:16.622Z,3616.00
2018-06-09T12:18:16.581Z,3588.00
2018-06-09T12:19:16.586Z,3576.00
2018-06-09T12:20:16.613Z,3572.00
2018-06-09T12:21:16.659Z,3552.00
2018-06-09T12:22:16.589Z,3808.00
2018-06-09T12:23:16.591Z,3556.00
2018-06-09T12:24:16.593Z,3560.00
2018-06-09T12:25:16.597Z,3552.00
2018-06-09T12:26:16.598Z,3564.00
2018-06-09T12:27:16.612Z,3548.00